sensor_id;sensor_type;location;lat;lon;timestamp;temperature;humidity
38854;DHT22;24606;51.992;4.198;2022-10-18T00:03:06;21.20;89.90
38854;DHT22;24606;51.992;4.198;2022-10-18T00:08:08;21.30;89.80
38854;DHT22;24606;51.992;4.198;2022-10-18T00:13:12;21.30;89.80
38854;DHT22;24606;51.992;4.198;2022-10-18T00:18:14;21.30;89.90
38854;DHT22;24606;51.992;4.198;2022-10-18T00:23:16;21.30;90.00
38854;DHT22;24606;51.992;4.198;2022-10-18T00:28:19;21.20;90.00
38854;DHT22;24606;51.992;4.198;2022-10-18T00:33:21;21.20;90.00
38854;DHT22;24606;51.992;4.198;2022-10-18T00:38:23;21.50;90.00
38854;DHT22;24606;51.992;4.198;2022-10-18T00:43:26;21.20;89.90
38854;DHT22;24606;51.992;4.198;2022-10-18T00:48:28;21.40;89.90
38854;DHT22;24606;51.992;4.198;2022-10-18T00:53:30;21.20;90.00
38854;DHT22;24606;51.992;4.198;2022-10-18T00:58:33;21.50;90.00
38854;DHT22;24606;51.992;4.198;2022-10-18T01:03:36;20.90;89.80
38854;DHT22;24606;51.992;4.198;2022-10-18T01:08:52;21.20;89.90
38854;DHT22;24606;51.992;4.198;2022-10-18T01:14:07;21.90;90.20
38854;DHT22;24606;51.992;4.198;2022-10-18T01:19:28;21.20;90.00
38854;DHT22;24606;51.992;4.198;2022-10-18T01:24:49;21.20;89.90
38854;DHT22;24606;51.992;4.198;2022-10-18T01:35:35;21.10;90.20
38854;DHT22;24606;51.992;4.198;2022-10-18T01:40:40;21.20;89.80
38854;DHT22;24606;51.992;4.198;2022-10-18T01:45:42;21.20;89.70
38854;DHT22;24606;51.992;4.198;2022-10-18T01:50:46;20.60;89.30
38854;DHT22;24606;51.992;4.198;2022-10-18T01:55:54;21.10;89.60
38854;DHT22;24606;51.992;4.198;2022-10-18T02:01:04;21.30;89.70
38854;DHT22;24606;51.992;4.198;2022-10-18T02:06:13;21.10;89.60
38854;DHT22;24606;51.992;4.198;2022-10-18T02:11:19;21.10;89.40
38854;DHT22;24606;51.992;4.198;2022-10-18T02:16:25;21.10;89.40
38854;DHT22;24606;51.992;4.198;2022-10-18T02:21:29;21.10;89.30
38854;DHT22;24606;51.992;4.198;2022-10-18T02:26:31;21.10;89.40
38854;DHT22;24606;51.992;4.198;2022-10-18T02:31:36;21.10;89.30
38854;DHT22;24606;51.992;4.198;2022-10-18T02:36:42;21.10;89.20
38854;DHT22;24606;51.992;4.198;2022-10-18T02:41:44;21.10;89.10
38854;DHT22;24606;51.992;4.198;2022-10-18T02:46:47;21.60;89.50
38854;DHT22;24606;51.992;4.198;2022-10-18T02:51:50;21.00;89.40
38854;DHT22;24606;51.992;4.198;2022-10-18T02:56:52;20.70;89.00
38854;DHT22;24606;51.992;4.198;2022-10-18T03:01:54;21.00;89.00
38854;DHT22;24606;51.992;4.198;2022-10-18T03:06:57;21.00;89.00
38854;DHT22;24606;51.992;4.198;2022-10-18T03:11:59;21.80;89.40
38854;DHT22;24606;51.992;4.198;2022-10-18T03:17:01;21.10;88.60
38854;DHT22;24606;51.992;4.198;2022-10-18T03:22:04;21.20;88.70
38854;DHT22;24606;51.992;4.198;2022-10-18T03:27:06;22.10;89.20
38854;DHT22;24606;51.992;4.198;2022-10-18T03:32:08;21.00;88.50
38854;DHT22;24606;51.992;4.198;2022-10-18T03:37:11;21.00;88.40
38854;DHT22;24606;51.992;4.198;2022-10-18T03:42:13;21.00;88.30
38854;DHT22;24606;51.992;4.198;2022-10-18T03:47:15;21.00;88.30
38854;DHT22;24606;51.992;4.198;2022-10-18T03:52:18;20.90;88.30
38854;DHT22;24606;51.992;4.198;2022-10-18T03:57:20;20.90;88.10
38854;DHT22;24606;51.992;4.198;2022-10-18T04:02:21;20.90;88.10
38854;DHT22;24606;51.992;4.198;2022-10-18T04:07:25;20.90;88.00
38854;DHT22;24606;51.992;4.198;2022-10-18T04:12:27;20.90;88.00
38854;DHT22;24606;51.992;4.198;2022-10-18T04:17:28;20.90;87.90
38854;DHT22;24606;51.992;4.198;2022-10-18T04:22:32;20.90;87.80
38854;DHT22;24606;51.992;4.198;2022-10-18T04:27:34;20.90;87.60
38854;DHT22;24606;51.992;4.198;2022-10-18T04:32:36;20.90;87.60
38854;DHT22;24606;51.992;4.198;2022-10-18T04:37:39;20.80;87.60
38854;DHT22;24606;51.992;4.198;2022-10-18T04:42:41;21.70;87.80
38854;DHT22;24606;51.992;4.198;2022-10-18T04:47:42;20.60;87.20
38854;DHT22;24606;51.992;4.198;2022-10-18T04:52:46;20.90;87.20
38854;DHT22;24606;51.992;4.198;2022-10-18T04:57:47;20.90;87.20
38854;DHT22;24606;51.992;4.198;2022-10-18T05:02:49;20.80;87.30
38854;DHT22;24606;51.992;4.198;2022-10-18T05:07:57;20.80;87.10
38854;DHT22;24606;51.992;4.198;2022-10-18T05:12:59;20.80;87.00
38854;DHT22;24606;51.992;4.198;2022-10-18T05:18:01;20.80;87.00
38854;DHT22;24606;51.992;4.198;2022-10-18T05:23:04;20.30;86.60
38854;DHT22;24606;51.992;4.198;2022-10-18T05:28:06;20.80;86.70
38854;DHT22;24606;51.992;4.198;2022-10-18T05:33:08;20.90;86.80
38854;DHT22;24606;51.992;4.198;2022-10-18T05:38:11;21.40;87.10
38854;DHT22;24606;51.992;4.198;2022-10-18T05:43:13;20.10;86.00
38854;DHT22;24606;51.992;4.198;2022-10-18T05:48:17;20.80;86.20
38854;DHT22;24606;51.992;4.198;2022-10-18T05:53:20;20.70;85.90
38854;DHT22;24606;51.992;4.198;2022-10-18T05:58:22;21.50;86.00
38854;DHT22;24606;51.992;4.198;2022-10-18T06:03:24;20.70;85.20
38854;DHT22;24606;51.992;4.198;2022-10-18T06:08:28;20.80;84.90
38854;DHT22;24606;51.992;4.198;2022-10-18T06:13:30;20.70;84.70
38854;DHT22;24606;51.992;4.198;2022-10-18T06:18:32;20.50;84.50
38854;DHT22;24606;51.992;4.198;2022-10-18T06:23:35;21.60;84.80
38854;DHT22;24606;51.992;4.198;2022-10-18T06:28:37;20.60;83.70
38854;DHT22;24606;51.992;4.198;2022-10-18T06:33:39;20.60;83.90
38854;DHT22;24606;51.992;4.198;2022-10-18T06:38:43;20.60;83.90
38854;DHT22;24606;51.992;4.198;2022-10-18T06:43:47;20.60;83.70
38854;DHT22;24606;51.992;4.198;2022-10-18T06:48:49;20.60;83.70
38854;DHT22;24606;51.992;4.198;2022-10-18T06:53:52;20.60;83.50
38854;DHT22;24606;51.992;4.198;2022-10-18T06:58:55;20.00;83.10
38854;DHT22;24606;51.992;4.198;2022-10-18T07:03:57;20.60;83.40
38854;DHT22;24606;51.992;4.198;2022-10-18T07:09:00;20.70;83.20
38854;DHT22;24606;51.992;4.198;2022-10-18T07:14:02;20.60;83.00
38854;DHT22;24606;51.992;4.198;2022-10-18T07:19:04;20.70;82.50
38854;DHT22;24606;51.992;4.198;2022-10-18T07:24:08;20.70;82.40
38854;DHT22;24606;51.992;4.198;2022-10-18T07:29:11;20.70;82.00
38854;DHT22;24606;51.992;4.198;2022-10-18T07:34:13;20.70;81.60
38854;DHT22;24606;51.992;4.198;2022-10-18T07:39:16;20.80;81.50
38854;DHT22;24606;51.992;4.198;2022-10-18T07:44:18;20.80;81.20
38854;DHT22;24606;51.992;4.198;2022-10-18T07:49:20;20.80;81.00
38854;DHT22;24606;51.992;4.198;2022-10-18T07:54:23;20.80;80.80
38854;DHT22;24606;51.992;4.198;2022-10-18T07:59:25;20.80;80.80
38854;DHT22;24606;51.992;4.198;2022-10-18T08:04:26;20.90;80.50
38854;DHT22;24606;51.992;4.198;2022-10-18T08:09:30;20.80;80.60
38854;DHT22;24606;51.992;4.198;2022-10-18T08:14:31;21.90;81.00
38854;DHT22;24606;51.992;4.198;2022-10-18T08:19:33;20.90;80.60
38854;DHT22;24606;51.992;4.198;2022-10-18T08:24:36;20.90;80.70
38854;DHT22;24606;51.992;4.198;2022-10-18T08:29:38;20.90;80.70
38854;DHT22;24606;51.992;4.198;2022-10-18T08:34:40;20.90;80.60
38854;DHT22;24606;51.992;4.198;2022-10-18T08:39:43;20.90;80.60
38854;DHT22;24606;51.992;4.198;2022-10-18T08:44:46;20.90;80.60
38854;DHT22;24606;51.992;4.198;2022-10-18T08:49:50;21.10;80.70
38854;DHT22;24606;51.992;4.198;2022-10-18T08:54:59;20.90;80.70
38854;DHT22;24606;51.992;4.198;2022-10-18T09:00:14;20.80;80.70
38854;DHT22;24606;51.992;4.198;2022-10-18T09:05:21;20.90;80.80
38854;DHT22;24606;51.992;4.198;2022-10-18T09:10:40;20.40;80.60
38854;DHT22;24606;51.992;4.198;2022-10-18T09:15:45;21.00;80.80
38854;DHT22;24606;51.992;4.198;2022-10-18T09:20:54;20.70;82.00
38854;DHT22;24606;51.992;4.198;2022-10-18T09:26:02;20.00;80.30
38854;DHT22;24606;51.992;4.198;2022-10-18T09:31:14;21.00;80.90
38854;DHT22;24606;51.992;4.198;2022-10-18T09:36:21;21.00;81.00
38854;DHT22;24606;51.992;4.198;2022-10-18T09:41:27;21.00;81.10
38854;DHT22;24606;51.992;4.198;2022-10-18T09:46:36;21.00;79.10
38854;DHT22;24606;51.992;4.198;2022-10-18T09:51:40;21.00;81.40
38854;DHT22;24606;51.992;4.198;2022-10-18T09:56:47;20.70;82.20
38854;DHT22;24606;51.992;4.198;2022-10-18T10:01:50;20.00;86.60
38854;DHT22;24606;51.992;4.198;2022-10-18T10:06:54;20.30;78.50
38854;DHT22;24606;51.992;4.198;2022-10-18T10:11:57;20.50;83.60
38854;DHT22;24606;51.992;4.198;2022-10-18T10:17:01;20.70;82.70
38854;DHT22;24606;51.992;4.198;2022-10-18T10:22:05;20.90;80.90
38854;DHT22;24606;51.992;4.198;2022-10-18T10:27:18;20.10;86.50
38854;DHT22;24606;51.992;4.198;2022-10-18T10:32:23;20.10;86.50
38854;DHT22;24606;51.992;4.198;2022-10-18T10:37:31;20.10;84.50
38854;DHT22;24606;51.992;4.198;2022-10-18T10:42:37;20.40;85.00
38854;DHT22;24606;51.992;4.198;2022-10-18T10:47:39;20.30;75.60
38854;DHT22;24606;51.992;4.198;2022-10-18T10:52:46;20.50;83.30
38854;DHT22;24606;51.992;4.198;2022-10-18T10:57:50;19.30;74.10
38854;DHT22;24606;51.992;4.198;2022-10-18T11:03:04;19.80;84.90
38854;DHT22;24606;51.992;4.198;2022-10-18T11:08:08;19.90;84.50
38854;DHT22;24606;51.992;4.198;2022-10-18T11:13:23;19.70;86.60
38854;DHT22;24606;51.992;4.198;2022-10-18T11:18:31;19.80;71.90
38854;DHT22;24606;51.992;4.198;2022-10-18T11:23:36;20.30;82.80
38854;DHT22;24606;51.992;4.198;2022-10-18T11:28:52;20.00;82.60
38854;DHT22;24606;51.992;4.198;2022-10-18T11:34:12;19.90;85.60
38854;DHT22;24606;51.992;4.198;2022-10-18T11:39:21;19.40;83.90
38854;DHT22;24606;51.992;4.198;2022-10-18T11:44:35;20.40;75.10
38854;DHT22;24606;51.992;4.198;2022-10-18T11:49:57;19.20;85.50
38854;DHT22;24606;51.992;4.198;2022-10-18T11:55:29;19.90;85.00
38854;DHT22;24606;51.992;4.198;2022-10-18T12:00:45;19.60;85.80
38854;DHT22;24606;51.992;4.198;2022-10-18T12:05:50;19.30;86.40
38854;DHT22;24606;51.992;4.198;2022-10-18T12:10:54;19.50;78.80
38854;DHT22;24606;51.992;4.198;2022-10-18T12:16:01;20.00;85.70
38854;DHT22;24606;51.992;4.198;2022-10-18T12:21:05;19.90;81.90
38854;DHT22;24606;51.992;4.198;2022-10-18T12:26:09;20.70;79.60
38854;DHT22;24606;51.992;4.198;2022-10-18T12:31:19;20.20;83.20
38854;DHT22;24606;51.992;4.198;2022-10-18T12:36:42;20.40;82.10
38854;DHT22;24606;51.992;4.198;2022-10-18T12:41:46;19.70;83.00
38854;DHT22;24606;51.992;4.198;2022-10-18T12:46:51;20.10;79.60
38854;DHT22;24606;51.992;4.198;2022-10-18T12:51:55;20.20;82.50
38854;DHT22;24606;51.992;4.198;2022-10-18T12:57:00;21.00;79.50
38854;DHT22;24606;51.992;4.198;2022-10-18T13:02:22;21.30;78.50
38854;DHT22;24606;51.992;4.198;2022-10-18T13:07:34;20.90;81.50
38854;DHT22;24606;51.992;4.198;2022-10-18T13:12:52;20.90;80.70
38854;DHT22;24606;51.992;4.198;2022-10-18T13:18:03;21.40;75.70
38854;DHT22;24606;51.992;4.198;2022-10-18T13:23:15;21.30;73.60
38854;DHT22;24606;51.992;4.198;2022-10-18T13:28:29;21.90;76.40
38854;DHT22;24606;51.992;4.198;2022-10-18T13:33:38;21.40;73.80
38854;DHT22;24606;51.992;4.198;2022-10-18T13:38:46;21.60;73.30
38854;DHT22;24606;51.992;4.198;2022-10-18T13:44:23;22.00;73.70
38854;DHT22;24606;51.992;4.198;2022-10-18T13:49:33;21.90;66.60
38854;DHT22;24606;51.992;4.198;2022-10-18T13:54:58;22.00;71.90
38854;DHT22;24606;51.992;4.198;2022-10-18T14:00:17;22.20;72.30
38854;DHT22;24606;51.992;4.198;2022-10-18T14:05:36;22.90;72.20
38854;DHT22;24606;51.992;4.198;2022-10-18T14:10:45;22.40;71.10
38854;DHT22;24606;51.992;4.198;2022-10-18T14:15:51;22.50;71.00
38854;DHT22;24606;51.992;4.198;2022-10-18T14:21:00;22.60;64.50
38854;DHT22;24606;51.992;4.198;2022-10-18T14:26:10;22.80;68.70
38854;DHT22;24606;51.992;4.198;2022-10-18T14:31:15;22.80;64.30
38854;DHT22;24606;51.992;4.198;2022-10-18T14:36:23;22.70;68.70
38854;DHT22;24606;51.992;4.198;2022-10-18T14:41:27;22.80;68.00
38854;DHT22;24606;51.992;4.198;2022-10-18T14:46:29;23.10;64.90
38854;DHT22;24606;51.992;4.198;2022-10-18T14:51:35;22.90;68.80
38854;DHT22;24606;51.992;4.198;2022-10-18T14:56:40;23.30;68.80
38854;DHT22;24606;51.992;4.198;2022-10-18T15:01:51;23.10;68.30
38854;DHT22;24606;51.992;4.198;2022-10-18T15:06:56;23.20;68.70
38854;DHT22;24606;51.992;4.198;2022-10-18T15:11:58;23.30;68.70
38854;DHT22;24606;51.992;4.198;2022-10-18T15:17:03;23.30;68.60
38854;DHT22;24606;51.992;4.198;2022-10-18T15:22:09;23.40;69.00
38854;DHT22;24606;51.992;4.198;2022-10-18T15:27:13;23.40;68.60
38854;DHT22;24606;51.992;4.198;2022-10-18T15:32:23;23.50;67.90
38854;DHT22;24606;51.992;4.198;2022-10-18T15:37:41;23.50;67.90
38854;DHT22;24606;51.992;4.198;2022-10-18T15:42:44;23.50;67.70
38854;DHT22;24606;51.992;4.198;2022-10-18T15:48:00;23.60;67.40
38854;DHT22;24606;51.992;4.198;2022-10-18T15:53:23;23.70;67.40
38854;DHT22;24606;51.992;4.198;2022-10-18T15:58:27;23.30;67.30
38854;DHT22;24606;51.992;4.198;2022-10-18T16:03:32;23.80;67.50
38854;DHT22;24606;51.992;4.198;2022-10-18T16:08:38;23.70;67.80
38854;DHT22;24606;51.992;4.198;2022-10-18T16:13:42;23.70;67.80
38854;DHT22;24606;51.992;4.198;2022-10-18T16:18:44;23.40;67.70
38854;DHT22;24606;51.992;4.198;2022-10-18T16:23:47;23.70;68.20
38854;DHT22;24606;51.992;4.198;2022-10-18T16:28:49;23.70;68.20
38854;DHT22;24606;51.992;4.198;2022-10-18T16:33:53;23.60;68.20
38854;DHT22;24606;51.992;4.198;2022-10-18T16:38:59;23.60;68.90
38854;DHT22;24606;51.992;4.198;2022-10-18T16:44:01;23.50;69.40
38854;DHT22;24606;51.992;4.198;2022-10-18T16:49:04;23.40;69.80
38854;DHT22;24606;51.992;4.198;2022-10-18T16:54:07;23.50;70.10
38854;DHT22;24606;51.992;4.198;2022-10-18T16:59:19;23.40;70.30
38854;DHT22;24606;51.992;4.198;2022-10-18T17:04:21;23.30;70.50
38854;DHT22;24606;51.992;4.198;2022-10-18T17:09:25;23.30;70.30
38854;DHT22;24606;51.992;4.198;2022-10-18T17:14:26;23.30;70.70
38854;DHT22;24606;51.992;4.198;2022-10-18T17:19:28;23.30;71.00
38854;DHT22;24606;51.992;4.198;2022-10-18T17:24:33;23.30;71.40
38854;DHT22;24606;51.992;4.198;2022-10-18T17:29:35;23.20;71.60
38854;DHT22;24606;51.992;4.198;2022-10-18T17:34:38;23.20;72.00
38854;DHT22;24606;51.992;4.198;2022-10-18T17:39:41;23.20;72.40
38854;DHT22;24606;51.992;4.198;2022-10-18T17:44:43;23.70;73.00
38854;DHT22;24606;51.992;4.198;2022-10-18T17:49:45;22.70;72.70
38854;DHT22;24606;51.992;4.198;2022-10-18T17:54:49;23.10;73.10
38854;DHT22;24606;51.992;4.198;2022-10-18T17:59:51;23.10;73.40
38854;DHT22;24606;51.992;4.198;2022-10-18T18:04:54;23.00;73.60
38854;DHT22;24606;51.992;4.198;2022-10-18T18:09:58;23.10;73.80
38854;DHT22;24606;51.992;4.198;2022-10-18T18:15:00;23.00;74.00
38854;DHT22;24606;51.992;4.198;2022-10-18T18:20:01;23.50;74.40
38854;DHT22;24606;51.992;4.198;2022-10-18T18:25:05;23.00;74.20
38854;DHT22;24606;51.992;4.198;2022-10-18T18:30:09;22.90;74.30
38854;DHT22;24606;51.992;4.198;2022-10-18T18:35:12;22.90;74.50
38854;DHT22;24606;51.992;4.198;2022-10-18T18:40:15;22.90;74.60
38854;DHT22;24606;51.992;4.198;2022-10-18T18:45:16;22.80;74.60
38854;DHT22;24606;51.992;4.198;2022-10-18T18:50:18;22.80;74.80
38854;DHT22;24606;51.992;4.198;2022-10-18T18:55:21;22.80;74.90
38854;DHT22;24606;51.992;4.198;2022-10-18T19:00:24;23.20;75.40
38854;DHT22;24606;51.992;4.198;2022-10-18T19:05:26;22.80;75.30
38854;DHT22;24606;51.992;4.198;2022-10-18T19:10:30;22.80;75.50
38854;DHT22;24606;51.992;4.198;2022-10-18T19:15:32;22.70;75.50
38854;DHT22;24606;51.992;4.198;2022-10-18T19:20:34;22.60;75.50
38854;DHT22;24606;51.992;4.198;2022-10-18T19:25:37;22.60;75.40
38854;DHT22;24606;51.992;4.198;2022-10-18T19:30:40;22.60;75.40
38854;DHT22;24606;51.992;4.198;2022-10-18T19:35:42;22.90;75.60
38854;DHT22;24606;51.992;4.198;2022-10-18T19:40:45;22.50;75.90
38854;DHT22;24606;51.992;4.198;2022-10-18T19:45:47;22.40;75.50
38854;DHT22;24606;51.992;4.198;2022-10-18T19:50:49;22.40;75.40
38854;DHT22;24606;51.992;4.198;2022-10-18T19:55:57;22.30;75.40
38854;DHT22;24606;51.992;4.198;2022-10-18T20:00:59;22.30;75.30
38854;DHT22;24606;51.992;4.198;2022-10-18T20:06:02;22.30;75.30
38854;DHT22;24606;51.992;4.198;2022-10-18T20:11:07;22.20;75.30
38854;DHT22;24606;51.992;4.198;2022-10-18T20:16:10;22.20;75.40
38854;DHT22;24606;51.992;4.198;2022-10-18T20:21:14;22.20;75.40
38854;DHT22;24606;51.992;4.198;2022-10-18T20:26:19;22.20;75.50
38854;DHT22;24606;51.992;4.198;2022-10-18T20:31:22;22.10;75.40
38854;DHT22;24606;51.992;4.198;2022-10-18T20:36:26;22.10;75.50
38854;DHT22;24606;51.992;4.198;2022-10-18T20:41:31;22.10;75.50
38854;DHT22;24606;51.992;4.198;2022-10-18T20:46:35;22.00;75.60
38854;DHT22;24606;51.992;4.198;2022-10-18T20:51:38;22.00;75.60
38854;DHT22;24606;51.992;4.198;2022-10-18T20:56:41;22.00;75.80
38854;DHT22;24606;51.992;4.198;2022-10-18T21:01:43;22.10;76.10
38854;DHT22;24606;51.992;4.198;2022-10-18T21:06:44;21.90;76.00
38854;DHT22;24606;51.992;4.198;2022-10-18T21:11:50;21.90;75.90
38854;DHT22;24606;51.992;4.198;2022-10-18T21:16:53;21.80;75.90
38854;DHT22;24606;51.992;4.198;2022-10-18T21:21:56;21.90;76.10
38854;DHT22;24606;51.992;4.198;2022-10-18T21:26:59;21.80;75.90
38854;DHT22;24606;51.992;4.198;2022-10-18T21:32:02;22.40;76.30
38854;DHT22;24606;51.992;4.198;2022-10-18T21:37:04;21.70;75.90
38854;DHT22;24606;51.992;4.198;2022-10-18T21:42:07;21.80;76.00
38854;DHT22;24606;51.992;4.198;2022-10-18T21:47:09;21.70;75.90
38854;DHT22;24606;51.992;4.198;2022-10-18T21:52:11;21.60;75.80
38854;DHT22;24606;51.992;4.198;2022-10-18T21:57:14;21.60;75.70
38854;DHT22;24606;51.992;4.198;2022-10-18T22:02:15;21.90;75.90
38854;DHT22;24606;51.992;4.198;2022-10-18T22:07:17;22.00;76.00
38854;DHT22;24606;51.992;4.198;2022-10-18T22:12:20;21.60;75.70
38854;DHT22;24606;51.992;4.198;2022-10-18T22:17:23;21.50;75.60
38854;DHT22;24606;51.992;4.198;2022-10-18T22:22:25;21.50;75.70
38854;DHT22;24606;51.992;4.198;2022-10-18T22:27:29;21.50;75.60
38854;DHT22;24606;51.992;4.198;2022-10-18T22:32:31;21.50;75.60
38854;DHT22;24606;51.992;4.198;2022-10-18T22:37:33;21.90;75.80
38854;DHT22;24606;51.992;4.198;2022-10-18T22:42:36;21.40;75.70
38854;DHT22;24606;51.992;4.198;2022-10-18T22:47:38;21.40;75.70
38854;DHT22;24606;51.992;4.198;2022-10-18T22:52:40;21.40;76.50
38854;DHT22;24606;51.992;4.198;2022-10-18T22:57:43;21.80;76.10
38854;DHT22;24606;51.992;4.198;2022-10-18T23:02:47;22.10;76.30
38854;DHT22;24606;51.992;4.198;2022-10-18T23:07:49;21.40;75.60
38854;DHT22;24606;51.992;4.198;2022-10-18T23:12:52;21.30;75.70
38854;DHT22;24606;51.992;4.198;2022-10-18T23:17:56;21.30;75.70
38854;DHT22;24606;51.992;4.198;2022-10-18T23:22:58;21.30;75.50
38854;DHT22;24606;51.992;4.198;2022-10-18T23:28:01;21.30;75.50
38854;DHT22;24606;51.992;4.198;2022-10-18T23:33:03;21.30;75.30
38854;DHT22;24606;51.992;4.198;2022-10-18T23:38:05;21.30;75.40
38854;DHT22;24606;51.992;4.198;2022-10-18T23:43:08;21.20;75.30
38854;DHT22;24606;51.992;4.198;2022-10-18T23:48:10;21.20;75.40
38854;DHT22;24606;51.992;4.198;2022-10-18T23:53:12;21.20;75.40
38854;DHT22;24606;51.992;4.198;2022-10-18T23:58:15;21.20;75.30
